sensor_id;sensor_type;location;lat;lon;timestamp;temperature;humidity
10411;DHT22;5251;52.112;8.606;2022-07-29T00:01:33;20.20;69.60
10411;DHT22;5251;52.112;8.606;2022-07-29T00:03:58;20.10;69.40
10411;DHT22;5251;52.112;8.606;2022-07-29T00:06:24;20.10;69.50
10411;DHT22;5251;52.112;8.606;2022-07-29T00:08:49;20.00;69.20
10411;DHT22;5251;52.112;8.606;2022-07-29T00:11:15;20.00;69.40
10411;DHT22;5251;52.112;8.606;2022-07-29T00:13:41;19.90;69.20
10411;DHT22;5251;52.112;8.606;2022-07-29T00:16:06;19.90;70.50
10411;DHT22;5251;52.112;8.606;2022-07-29T00:18:32;19.90;70.30
10411;DHT22;5251;52.112;8.606;2022-07-29T00:20:57;19.90;70.10
10411;DHT22;5251;52.112;8.606;2022-07-29T00:23:23;19.90;70.00
10411;DHT22;5251;52.112;8.606;2022-07-29T00:25:49;19.80;69.80
10411;DHT22;5251;52.112;8.606;2022-07-29T00:28:14;19.80;70.10
10411;DHT22;5251;52.112;8.606;2022-07-29T00:30:40;19.80;70.10
10411;DHT22;5251;52.112;8.606;2022-07-29T00:33:08;19.70;70.10
10411;DHT22;5251;52.112;8.606;2022-07-29T00:35:34;19.70;70.20
10411;DHT22;5251;52.112;8.606;2022-07-29T00:38:16;19.80;70.80
10411;DHT22;5251;52.112;8.606;2022-07-29T00:40:42;19.80;70.30
10411;DHT22;5251;52.112;8.606;2022-07-29T00:43:08;19.80;69.80
10411;DHT22;5251;52.112;8.606;2022-07-29T00:45:34;19.70;69.60
10411;DHT22;5251;52.112;8.606;2022-07-29T00:48:00;19.70;69.50
10411;DHT22;5251;52.112;8.606;2022-07-29T00:50:26;19.70;69.60
10411;DHT22;5251;52.112;8.606;2022-07-29T00:52:52;19.70;69.40
10411;DHT22;5251;52.112;8.606;2022-07-29T00:55:18;19.70;69.40
10411;DHT22;5251;52.112;8.606;2022-07-29T00:57:44;19.70;69.30
10411;DHT22;5251;52.112;8.606;2022-07-29T01:00:16;19.70;69.40
10411;DHT22;5251;52.112;8.606;2022-07-29T01:02:43;19.70;69.40
10411;DHT22;5251;52.112;8.606;2022-07-29T01:05:10;19.70;69.00
10411;DHT22;5251;52.112;8.606;2022-07-29T01:07:37;19.70;68.80
10411;DHT22;5251;52.112;8.606;2022-07-29T01:10:04;19.80;69.30
10411;DHT22;5251;52.112;8.606;2022-07-29T01:12:32;19.80;69.10
10411;DHT22;5251;52.112;8.606;2022-07-29T01:15:00;19.80;69.10
10411;DHT22;5251;52.112;8.606;2022-07-29T01:23:07;19.80;71.60
10411;DHT22;5251;52.112;8.606;2022-07-29T01:28:41;19.80;73.30
10411;DHT22;5251;52.112;8.606;2022-07-29T01:31:11;19.80;73.40
10411;DHT22;5251;52.112;8.606;2022-07-29T01:33:45;19.80;73.10
10411;DHT22;5251;52.112;8.606;2022-07-29T01:36:19;19.80;72.40
10411;DHT22;5251;52.112;8.606;2022-07-29T01:38:56;19.80;72.90
10411;DHT22;5251;52.112;8.606;2022-07-29T01:41:24;19.70;72.20
10411;DHT22;5251;52.112;8.606;2022-07-29T01:43:56;19.70;73.80
10411;DHT22;5251;52.112;8.606;2022-07-29T01:46:33;19.70;74.60
10411;DHT22;5251;52.112;8.606;2022-07-29T01:49:10;19.60;74.00
10411;DHT22;5251;52.112;8.606;2022-07-29T01:51:50;19.60;74.10
10411;DHT22;5251;52.112;8.606;2022-07-29T01:54:21;19.60;74.50
10411;DHT22;5251;52.112;8.606;2022-07-29T01:56:51;19.60;74.40
10411;DHT22;5251;52.112;8.606;2022-07-29T01:59:20;19.50;74.30
10411;DHT22;5251;52.112;8.606;2022-07-29T02:01:47;19.50;74.40
10411;DHT22;5251;52.112;8.606;2022-07-29T02:04:15;19.50;74.70
10411;DHT22;5251;52.112;8.606;2022-07-29T02:06:43;19.50;74.40
10411;DHT22;5251;52.112;8.606;2022-07-29T02:09:10;19.50;75.80
10411;DHT22;5251;52.112;8.606;2022-07-29T02:11:38;19.50;76.60
10411;DHT22;5251;52.112;8.606;2022-07-29T02:14:05;19.40;76.20
10411;DHT22;5251;52.112;8.606;2022-07-29T02:16:33;19.40;76.70
10411;DHT22;5251;52.112;8.606;2022-07-29T02:19:01;19.40;77.10
10411;DHT22;5251;52.112;8.606;2022-07-29T02:21:28;19.40;75.90
10411;DHT22;5251;52.112;8.606;2022-07-29T02:23:56;19.40;75.50
10411;DHT22;5251;52.112;8.606;2022-07-29T02:26:26;19.40;75.30
10411;DHT22;5251;52.112;8.606;2022-07-29T02:28:55;19.30;74.80
10411;DHT22;5251;52.112;8.606;2022-07-29T02:31:24;19.30;76.20
10411;DHT22;5251;52.112;8.606;2022-07-29T02:33:52;19.30;77.20
10411;DHT22;5251;52.112;8.606;2022-07-29T02:36:21;19.30;77.90
10411;DHT22;5251;52.112;8.606;2022-07-29T02:38:48;19.20;78.00
10411;DHT22;5251;52.112;8.606;2022-07-29T02:41:30;19.20;76.30
10411;DHT22;5251;52.112;8.606;2022-07-29T02:44:05;19.20;77.10
10411;DHT22;5251;52.112;8.606;2022-07-29T02:46:33;19.20;78.40
10411;DHT22;5251;52.112;8.606;2022-07-29T02:49:07;19.10;79.60
10411;DHT22;5251;52.112;8.606;2022-07-29T02:51:43;19.20;80.20
10411;DHT22;5251;52.112;8.606;2022-07-29T02:54:11;19.10;79.60
10411;DHT22;5251;52.112;8.606;2022-07-29T02:56:40;19.10;79.90
10411;DHT22;5251;52.112;8.606;2022-07-29T02:59:10;19.00;79.90
10411;DHT22;5251;52.112;8.606;2022-07-29T03:01:40;19.00;78.20
10411;DHT22;5251;52.112;8.606;2022-07-29T03:04:06;19.00;77.90
10411;DHT22;5251;52.112;8.606;2022-07-29T03:06:34;19.00;78.40
10411;DHT22;5251;52.112;8.606;2022-07-29T03:09:00;18.90;77.80
10411;DHT22;5251;52.112;8.606;2022-07-29T03:11:26;18.90;78.80
10411;DHT22;5251;52.112;8.606;2022-07-29T03:13:52;18.90;79.80
10411;DHT22;5251;52.112;8.606;2022-07-29T03:16:19;18.90;79.90
10411;DHT22;5251;52.112;8.606;2022-07-29T03:18:46;18.80;79.30
10411;DHT22;5251;52.112;8.606;2022-07-29T03:21:12;18.80;79.30
10411;DHT22;5251;52.112;8.606;2022-07-29T03:23:43;18.80;80.00
10411;DHT22;5251;52.112;8.606;2022-07-29T03:26:10;18.80;80.80
10411;DHT22;5251;52.112;8.606;2022-07-29T03:28:36;18.80;81.60
10411;DHT22;5251;52.112;8.606;2022-07-29T03:31:02;18.80;81.70
10411;DHT22;5251;52.112;8.606;2022-07-29T03:33:27;18.70;81.50
10411;DHT22;5251;52.112;8.606;2022-07-29T03:35:54;18.70;82.00
10411;DHT22;5251;52.112;8.606;2022-07-29T03:38:20;18.70;82.30
10411;DHT22;5251;52.112;8.606;2022-07-29T03:40:53;18.70;82.70
10411;DHT22;5251;52.112;8.606;2022-07-29T03:43:20;18.70;83.40
10411;DHT22;5251;52.112;8.606;2022-07-29T03:45:49;18.60;81.90
10411;DHT22;5251;52.112;8.606;2022-07-29T03:48:19;18.60;82.60
10411;DHT22;5251;52.112;8.606;2022-07-29T03:50:45;18.60;83.90
10411;DHT22;5251;52.112;8.606;2022-07-29T03:53:12;18.60;84.00
10411;DHT22;5251;52.112;8.606;2022-07-29T03:55:41;18.50;84.60
10411;DHT22;5251;52.112;8.606;2022-07-29T03:58:07;18.50;85.30
10411;DHT22;5251;52.112;8.606;2022-07-29T04:00:34;18.50;85.50
10411;DHT22;5251;52.112;8.606;2022-07-29T04:03:00;18.50;85.80
10411;DHT22;5251;52.112;8.606;2022-07-29T04:05:26;18.50;86.30
10411;DHT22;5251;52.112;8.606;2022-07-29T04:07:51;18.50;86.40
10411;DHT22;5251;52.112;8.606;2022-07-29T04:10:17;18.40;86.70
10411;DHT22;5251;52.112;8.606;2022-07-29T04:12:44;18.40;87.30
10411;DHT22;5251;52.112;8.606;2022-07-29T04:15:10;18.40;87.70
10411;DHT22;5251;52.112;8.606;2022-07-29T04:17:36;18.40;88.30
10411;DHT22;5251;52.112;8.606;2022-07-29T04:20:03;18.40;89.10
10411;DHT22;5251;52.112;8.606;2022-07-29T04:22:29;18.40;89.60
10411;DHT22;5251;52.112;8.606;2022-07-29T04:24:54;18.30;90.30
10411;DHT22;5251;52.112;8.606;2022-07-29T04:27:20;18.30;90.00
10411;DHT22;5251;52.112;8.606;2022-07-29T04:29:45;18.30;88.70
10411;DHT22;5251;52.112;8.606;2022-07-29T04:32:11;18.30;88.60
10411;DHT22;5251;52.112;8.606;2022-07-29T04:34:37;18.30;88.70
10411;DHT22;5251;52.112;8.606;2022-07-29T04:37:02;18.30;89.40
10411;DHT22;5251;52.112;8.606;2022-07-29T04:39:28;18.30;90.00
10411;DHT22;5251;52.112;8.606;2022-07-29T04:41:53;18.40;90.40
10411;DHT22;5251;52.112;8.606;2022-07-29T04:44:19;18.30;90.50
10411;DHT22;5251;52.112;8.606;2022-07-29T04:46:45;18.40;90.70
10411;DHT22;5251;52.112;8.606;2022-07-29T04:49:10;18.40;90.10
10411;DHT22;5251;52.112;8.606;2022-07-29T04:51:36;18.40;90.60
10411;DHT22;5251;52.112;8.606;2022-07-29T04:54:02;18.40;90.60
10411;DHT22;5251;52.112;8.606;2022-07-29T04:56:27;18.40;89.80
10411;DHT22;5251;52.112;8.606;2022-07-29T04:58:53;18.40;90.00
10411;DHT22;5251;52.112;8.606;2022-07-29T05:01:18;18.40;89.00
10411;DHT22;5251;52.112;8.606;2022-07-29T05:03:44;18.50;90.20
10411;DHT22;5251;52.112;8.606;2022-07-29T05:06:10;18.50;90.40
10411;DHT22;5251;52.112;8.606;2022-07-29T05:08:36;18.60;90.70
10411;DHT22;5251;52.112;8.606;2022-07-29T05:11:02;18.60;90.90
10411;DHT22;5251;52.112;8.606;2022-07-29T05:13:29;18.70;91.30
10411;DHT22;5251;52.112;8.606;2022-07-29T05:15:54;18.70;91.50
10411;DHT22;5251;52.112;8.606;2022-07-29T05:18:20;18.80;91.60
10411;DHT22;5251;52.112;8.606;2022-07-29T05:20:46;18.90;90.60
10411;DHT22;5251;52.112;8.606;2022-07-29T05:23:11;19.00;90.40
10411;DHT22;5251;52.112;8.606;2022-07-29T05:25:40;19.10;89.80
10411;DHT22;5251;52.112;8.606;2022-07-29T05:28:06;19.30;89.00
10411;DHT22;5251;52.112;8.606;2022-07-29T05:30:31;19.50;87.40
10411;DHT22;5251;52.112;8.606;2022-07-29T05:32:57;19.60;87.70
10411;DHT22;5251;52.112;8.606;2022-07-29T05:35:23;19.80;86.90
10411;DHT22;5251;52.112;8.606;2022-07-29T05:37:48;19.90;90.20
10411;DHT22;5251;52.112;8.606;2022-07-29T05:40:14;20.10;87.20
10411;DHT22;5251;52.112;8.606;2022-07-29T05:42:39;20.20;89.90
10411;DHT22;5251;52.112;8.606;2022-07-29T05:45:05;20.30;88.00
10411;DHT22;5251;52.112;8.606;2022-07-29T05:47:31;20.50;86.50
10411;DHT22;5251;52.112;8.606;2022-07-29T05:49:57;20.60;85.40
10411;DHT22;5251;52.112;8.606;2022-07-29T05:52:22;20.70;86.00
10411;DHT22;5251;52.112;8.606;2022-07-29T05:54:48;20.80;85.00
10411;DHT22;5251;52.112;8.606;2022-07-29T05:57:21;20.90;83.30
10411;DHT22;5251;52.112;8.606;2022-07-29T05:59:47;21.00;81.80
10411;DHT22;5251;52.112;8.606;2022-07-29T06:02:13;21.10;81.30
10411;DHT22;5251;52.112;8.606;2022-07-29T06:04:39;21.10;79.30
10411;DHT22;5251;52.112;8.606;2022-07-29T06:07:05;21.20;79.40
10411;DHT22;5251;52.112;8.606;2022-07-29T06:09:31;21.20;80.80
10411;DHT22;5251;52.112;8.606;2022-07-29T06:11:57;21.30;80.40
10411;DHT22;5251;52.112;8.606;2022-07-29T06:14:24;21.40;79.60
10411;DHT22;5251;52.112;8.606;2022-07-29T06:16:50;21.50;79.50
10411;DHT22;5251;52.112;8.606;2022-07-29T06:19:15;21.60;79.30
10411;DHT22;5251;52.112;8.606;2022-07-29T06:21:42;21.70;78.60
10411;DHT22;5251;52.112;8.606;2022-07-29T06:24:10;21.70;78.30
10411;DHT22;5251;52.112;8.606;2022-07-29T06:26:36;21.80;77.30
10411;DHT22;5251;52.112;8.606;2022-07-29T06:29:01;21.80;77.00
10411;DHT22;5251;52.112;8.606;2022-07-29T06:31:27;21.90;78.00
10411;DHT22;5251;52.112;8.606;2022-07-29T06:33:52;21.90;77.00
10411;DHT22;5251;52.112;8.606;2022-07-29T06:36:18;22.00;78.50
10411;DHT22;5251;52.112;8.606;2022-07-29T06:38:44;22.10;80.90
10411;DHT22;5251;52.112;8.606;2022-07-29T06:41:09;22.10;77.10
10411;DHT22;5251;52.112;8.606;2022-07-29T06:43:39;22.20;75.20
10411;DHT22;5251;52.112;8.606;2022-07-29T06:46:11;22.30;73.60
10411;DHT22;5251;52.112;8.606;2022-07-29T06:48:38;22.30;73.30
10411;DHT22;5251;52.112;8.606;2022-07-29T06:51:04;22.40;74.40
10411;DHT22;5251;52.112;8.606;2022-07-29T06:53:31;22.40;72.90
10411;DHT22;5251;52.112;8.606;2022-07-29T06:55:57;22.50;73.10
10411;DHT22;5251;52.112;8.606;2022-07-29T06:58:24;22.50;73.50
10411;DHT22;5251;52.112;8.606;2022-07-29T07:00:49;22.50;72.60
10411;DHT22;5251;52.112;8.606;2022-07-29T07:03:16;22.50;72.50
10411;DHT22;5251;52.112;8.606;2022-07-29T07:05:42;22.60;71.80
10411;DHT22;5251;52.112;8.606;2022-07-29T07:08:08;22.60;73.10
10411;DHT22;5251;52.112;8.606;2022-07-29T07:10:34;22.70;73.00
10411;DHT22;5251;52.112;8.606;2022-07-29T07:13:00;22.80;71.50
10411;DHT22;5251;52.112;8.606;2022-07-29T07:15:27;22.90;70.70
10411;DHT22;5251;52.112;8.606;2022-07-29T07:17:53;23.00;70.20
10411;DHT22;5251;52.112;8.606;2022-07-29T07:20:19;23.10;70.00
10411;DHT22;5251;52.112;8.606;2022-07-29T07:22:44;23.20;69.60
10411;DHT22;5251;52.112;8.606;2022-07-29T07:25:12;23.30;70.40
10411;DHT22;5251;52.112;8.606;2022-07-29T07:27:38;23.40;69.20
10411;DHT22;5251;52.112;8.606;2022-07-29T07:30:04;23.50;67.50
10411;DHT22;5251;52.112;8.606;2022-07-29T07:32:34;23.60;68.50
10411;DHT22;5251;52.112;8.606;2022-07-29T07:35:00;23.70;69.60
10411;DHT22;5251;52.112;8.606;2022-07-29T07:37:26;23.90;71.20
10411;DHT22;5251;52.112;8.606;2022-07-29T07:39:52;24.00;67.50
10411;DHT22;5251;52.112;8.606;2022-07-29T07:42:18;24.10;69.40
10411;DHT22;5251;52.112;8.606;2022-07-29T07:44:44;24.10;66.80
10411;DHT22;5251;52.112;8.606;2022-07-29T07:47:11;24.30;66.60
10411;DHT22;5251;52.112;8.606;2022-07-29T07:49:37;24.30;64.90
10411;DHT22;5251;52.112;8.606;2022-07-29T07:52:03;24.40;66.10
10411;DHT22;5251;52.112;8.606;2022-07-29T07:54:29;24.50;66.50
10411;DHT22;5251;52.112;8.606;2022-07-29T07:56:55;24.60;66.20
10411;DHT22;5251;52.112;8.606;2022-07-29T07:59:20;24.70;64.20
10411;DHT22;5251;52.112;8.606;2022-07-29T08:01:46;24.70;63.40
10411;DHT22;5251;52.112;8.606;2022-07-29T08:04:11;24.70;62.70
10411;DHT22;5251;52.112;8.606;2022-07-29T08:06:37;24.80;61.70
10411;DHT22;5251;52.112;8.606;2022-07-29T08:09:04;24.80;62.60
10411;DHT22;5251;52.112;8.606;2022-07-29T08:11:30;24.90;61.70
10411;DHT22;5251;52.112;8.606;2022-07-29T08:13:56;25.00;61.90
10411;DHT22;5251;52.112;8.606;2022-07-29T08:16:21;25.00;60.20
10411;DHT22;5251;52.112;8.606;2022-07-29T08:18:47;25.10;60.10
10411;DHT22;5251;52.112;8.606;2022-07-29T08:21:14;25.10;59.70
10411;DHT22;5251;52.112;8.606;2022-07-29T08:23:40;25.20;60.00
10411;DHT22;5251;52.112;8.606;2022-07-29T08:26:12;25.20;61.40
10411;DHT22;5251;52.112;8.606;2022-07-29T08:28:39;25.30;59.40
10411;DHT22;5251;52.112;8.606;2022-07-29T08:31:05;25.50;58.30
10411;DHT22;5251;52.112;8.606;2022-07-29T08:33:32;25.70;59.10
10411;DHT22;5251;52.112;8.606;2022-07-29T08:35:57;25.90;59.70
10411;DHT22;5251;52.112;8.606;2022-07-29T08:38:23;26.10;59.80
10411;DHT22;5251;52.112;8.606;2022-07-29T08:40:49;26.40;58.30
10411;DHT22;5251;52.112;8.606;2022-07-29T08:43:14;26.60;57.90
10411;DHT22;5251;52.112;8.606;2022-07-29T08:45:50;26.80;56.70
10411;DHT22;5251;52.112;8.606;2022-07-29T08:48:19;27.10;57.70
10411;DHT22;5251;52.112;8.606;2022-07-29T08:50:46;27.30;56.00
10411;DHT22;5251;52.112;8.606;2022-07-29T08:53:15;27.40;55.20
10411;DHT22;5251;52.112;8.606;2022-07-29T08:55:46;27.60;54.30
10411;DHT22;5251;52.112;8.606;2022-07-29T08:58:13;27.70;55.10
10411;DHT22;5251;52.112;8.606;2022-07-29T09:00:45;27.80;55.30
10411;DHT22;5251;52.112;8.606;2022-07-29T09:03:16;27.90;53.30
10411;DHT22;5251;52.112;8.606;2022-07-29T09:05:43;28.00;53.30
10411;DHT22;5251;52.112;8.606;2022-07-29T09:08:10;28.00;53.20
10411;DHT22;5251;52.112;8.606;2022-07-29T09:10:36;28.00;54.00
10411;DHT22;5251;52.112;8.606;2022-07-29T09:13:02;28.10;53.00
10411;DHT22;5251;52.112;8.606;2022-07-29T09:15:28;28.10;54.10
10411;DHT22;5251;52.112;8.606;2022-07-29T09:17:53;28.10;54.40
10411;DHT22;5251;52.112;8.606;2022-07-29T09:20:21;28.00;54.80
10411;DHT22;5251;52.112;8.606;2022-07-29T09:22:48;28.00;52.60
10411;DHT22;5251;52.112;8.606;2022-07-29T09:25:34;28.00;54.00
10411;DHT22;5251;52.112;8.606;2022-07-29T09:28:16;28.00;55.30
10411;DHT22;5251;52.112;8.606;2022-07-29T09:30:56;28.00;54.20
10411;DHT22;5251;52.112;8.606;2022-07-29T09:33:25;28.00;55.20
10411;DHT22;5251;52.112;8.606;2022-07-29T09:36:14;28.00;54.40
10411;DHT22;5251;52.112;8.606;2022-07-29T09:38:39;28.00;54.20
10411;DHT22;5251;52.112;8.606;2022-07-29T09:41:05;28.00;53.40
10411;DHT22;5251;52.112;8.606;2022-07-29T09:43:31;28.10;54.60
10411;DHT22;5251;52.112;8.606;2022-07-29T09:46:10;28.20;53.60
10411;DHT22;5251;52.112;8.606;2022-07-29T09:48:36;28.20;52.40
10411;DHT22;5251;52.112;8.606;2022-07-29T09:51:02;28.30;53.90
10411;DHT22;5251;52.112;8.606;2022-07-29T09:53:35;28.40;53.20
10411;DHT22;5251;52.112;8.606;2022-07-29T09:56:03;28.50;54.10
10411;DHT22;5251;52.112;8.606;2022-07-29T09:58:30;28.60;54.40
10411;DHT22;5251;52.112;8.606;2022-07-29T10:00:56;28.70;53.70
10411;DHT22;5251;52.112;8.606;2022-07-29T10:03:22;28.80;51.90
10411;DHT22;5251;52.112;8.606;2022-07-29T10:08:30;29.10;51.90
10411;DHT22;5251;52.112;8.606;2022-07-29T10:11:10;29.30;52.00
10411;DHT22;5251;52.112;8.606;2022-07-29T10:13:36;29.50;54.30
10411;DHT22;5251;52.112;8.606;2022-07-29T10:16:02;29.70;53.10
10411;DHT22;5251;52.112;8.606;2022-07-29T10:18:28;29.90;54.30
10411;DHT22;5251;52.112;8.606;2022-07-29T10:20:55;30.00;52.80
10411;DHT22;5251;52.112;8.606;2022-07-29T10:23:21;30.10;51.60
10411;DHT22;5251;52.112;8.606;2022-07-29T10:25:47;30.20;49.90
10411;DHT22;5251;52.112;8.606;2022-07-29T10:28:13;30.30;51.30
10411;DHT22;5251;52.112;8.606;2022-07-29T10:30:39;30.30;49.60
10411;DHT22;5251;52.112;8.606;2022-07-29T10:36:37;30.20;48.70
10411;DHT22;5251;52.112;8.606;2022-07-29T10:42:05;30.00;49.80
10411;DHT22;5251;52.112;8.606;2022-07-29T10:44:35;30.10;49.50
10411;DHT22;5251;52.112;8.606;2022-07-29T10:47:04;30.10;48.40
10411;DHT22;5251;52.112;8.606;2022-07-29T10:49:30;30.10;48.60
10411;DHT22;5251;52.112;8.606;2022-07-29T10:51:57;30.10;47.80
10411;DHT22;5251;52.112;8.606;2022-07-29T10:54:45;30.20;50.00
10411;DHT22;5251;52.112;8.606;2022-07-29T10:59:40;30.30;47.30
10411;DHT22;5251;52.112;8.606;2022-07-29T11:07:25;30.50;47.50
10411;DHT22;5251;52.112;8.606;2022-07-29T11:15:17;30.60;46.80
10411;DHT22;5251;52.112;8.606;2022-07-29T11:20:41;30.50;47.90
10411;DHT22;5251;52.112;8.606;2022-07-29T11:23:36;30.50;47.10
10411;DHT22;5251;52.112;8.606;2022-07-29T11:26:15;30.50;45.90
10411;DHT22;5251;52.112;8.606;2022-07-29T11:29:03;30.40;45.70
10411;DHT22;5251;52.112;8.606;2022-07-29T11:31:39;30.40;46.50
10411;DHT22;5251;52.112;8.606;2022-07-29T11:34:28;30.30;46.90
10411;DHT22;5251;52.112;8.606;2022-07-29T11:39:34;30.30;46.10
10411;DHT22;5251;52.112;8.606;2022-07-29T11:44:58;30.30;45.60
10411;DHT22;5251;52.112;8.606;2022-07-29T11:50:03;30.10;45.70
10411;DHT22;5251;52.112;8.606;2022-07-29T11:52:33;30.10;46.50
10411;DHT22;5251;52.112;8.606;2022-07-29T11:55:01;30.00;45.90
10411;DHT22;5251;52.112;8.606;2022-07-29T11:57:28;30.00;46.10
10411;DHT22;5251;52.112;8.606;2022-07-29T11:59:55;30.00;47.40
10411;DHT22;5251;52.112;8.606;2022-07-29T12:02:23;30.00;49.50
10411;DHT22;5251;52.112;8.606;2022-07-29T12:04:49;30.10;47.50
10411;DHT22;5251;52.112;8.606;2022-07-29T12:07:15;30.30;47.50
10411;DHT22;5251;52.112;8.606;2022-07-29T12:09:52;30.30;46.70
10411;DHT22;5251;52.112;8.606;2022-07-29T12:12:18;30.30;47.00
10411;DHT22;5251;52.112;8.606;2022-07-29T12:14:44;30.40;47.60
10411;DHT22;5251;52.112;8.606;2022-07-29T12:17:28;30.40;45.90
10411;DHT22;5251;52.112;8.606;2022-07-29T12:19:58;30.50;45.80
10411;DHT22;5251;52.112;8.606;2022-07-29T12:22:36;30.50;46.70
10411;DHT22;5251;52.112;8.606;2022-07-29T12:25:11;30.60;46.40
10411;DHT22;5251;52.112;8.606;2022-07-29T12:27:37;30.60;46.60
10411;DHT22;5251;52.112;8.606;2022-07-29T12:30:09;30.70;46.90
10411;DHT22;5251;52.112;8.606;2022-07-29T12:32:48;30.80;46.90
10411;DHT22;5251;52.112;8.606;2022-07-29T12:35:18;30.80;46.20
10411;DHT22;5251;52.112;8.606;2022-07-29T12:37:46;30.90;45.90
10411;DHT22;5251;52.112;8.606;2022-07-29T12:40:17;31.00;45.60
10411;DHT22;5251;52.112;8.606;2022-07-29T12:45:31;31.10;45.20
10411;DHT22;5251;52.112;8.606;2022-07-29T12:47:57;31.20;46.20
10411;DHT22;5251;52.112;8.606;2022-07-29T12:50:22;31.20;44.40
10411;DHT22;5251;52.112;8.606;2022-07-29T12:52:49;31.10;45.30
10411;DHT22;5251;52.112;8.606;2022-07-29T12:55:15;31.10;46.40
10411;DHT22;5251;52.112;8.606;2022-07-29T12:57:48;31.10;45.90
10411;DHT22;5251;52.112;8.606;2022-07-29T13:00:15;30.90;45.60
10411;DHT22;5251;52.112;8.606;2022-07-29T13:02:41;30.90;45.60
10411;DHT22;5251;52.112;8.606;2022-07-29T13:05:09;30.80;46.50
10411;DHT22;5251;52.112;8.606;2022-07-29T13:07:35;30.70;47.30
10411;DHT22;5251;52.112;8.606;2022-07-29T13:10:18;30.60;45.20
10411;DHT22;5251;52.112;8.606;2022-07-29T13:13:11;30.50;46.70
10411;DHT22;5251;52.112;8.606;2022-07-29T13:15:42;30.40;46.70
10411;DHT22;5251;52.112;8.606;2022-07-29T13:18:35;30.40;48.80
10411;DHT22;5251;52.112;8.606;2022-07-29T13:21:14;30.30;48.50
10411;DHT22;5251;52.112;8.606;2022-07-29T13:23:41;30.30;47.90
10411;DHT22;5251;52.112;8.606;2022-07-29T13:26:08;30.30;48.40
10411;DHT22;5251;52.112;8.606;2022-07-29T13:28:34;30.30;46.60
10411;DHT22;5251;52.112;8.606;2022-07-29T13:31:00;30.30;47.70
10411;DHT22;5251;52.112;8.606;2022-07-29T13:33:26;30.30;46.30
10411;DHT22;5251;52.112;8.606;2022-07-29T13:35:51;30.20;47.90
10411;DHT22;5251;52.112;8.606;2022-07-29T13:38:17;30.20;47.50
10411;DHT22;5251;52.112;8.606;2022-07-29T13:40:43;30.20;47.40
10411;DHT22;5251;52.112;8.606;2022-07-29T13:43:09;30.30;48.60
10411;DHT22;5251;52.112;8.606;2022-07-29T13:45:35;30.30;49.00
10411;DHT22;5251;52.112;8.606;2022-07-29T13:48:01;30.40;47.50
10411;DHT22;5251;52.112;8.606;2022-07-29T13:50:26;30.40;46.90
10411;DHT22;5251;52.112;8.606;2022-07-29T13:52:52;30.50;48.00
10411;DHT22;5251;52.112;8.606;2022-07-29T13:55:18;30.50;47.00
10411;DHT22;5251;52.112;8.606;2022-07-29T13:57:44;30.60;47.70
10411;DHT22;5251;52.112;8.606;2022-07-29T14:00:10;30.70;49.00
10411;DHT22;5251;52.112;8.606;2022-07-29T14:02:36;30.70;47.80
10411;DHT22;5251;52.112;8.606;2022-07-29T14:05:04;30.70;46.90
10411;DHT22;5251;52.112;8.606;2022-07-29T14:07:30;30.70;46.60
10411;DHT22;5251;52.112;8.606;2022-07-29T14:09:55;30.70;46.40
10411;DHT22;5251;52.112;8.606;2022-07-29T14:12:22;30.60;46.80
10411;DHT22;5251;52.112;8.606;2022-07-29T14:14:47;30.50;46.80
10411;DHT22;5251;52.112;8.606;2022-07-29T14:17:14;30.40;50.50
10411;DHT22;5251;52.112;8.606;2022-07-29T14:19:39;30.30;50.90
10411;DHT22;5251;52.112;8.606;2022-07-29T14:22:06;30.10;49.60
10411;DHT22;5251;52.112;8.606;2022-07-29T14:24:33;30.00;51.90
10411;DHT22;5251;52.112;8.606;2022-07-29T14:26:58;29.90;52.50
10411;DHT22;5251;52.112;8.606;2022-07-29T14:29:24;29.70;49.90
10411;DHT22;5251;52.112;8.606;2022-07-29T14:31:50;29.70;50.10
10411;DHT22;5251;52.112;8.606;2022-07-29T14:34:15;29.60;52.40
10411;DHT22;5251;52.112;8.606;2022-07-29T14:36:41;29.50;52.00
10411;DHT22;5251;52.112;8.606;2022-07-29T14:39:07;29.40;53.40
10411;DHT22;5251;52.112;8.606;2022-07-29T14:41:33;29.30;52.80
10411;DHT22;5251;52.112;8.606;2022-07-29T14:43:59;29.30;53.00
10411;DHT22;5251;52.112;8.606;2022-07-29T14:46:26;29.20;51.90
10411;DHT22;5251;52.112;8.606;2022-07-29T14:48:52;29.20;51.90
10411;DHT22;5251;52.112;8.606;2022-07-29T14:51:17;29.10;51.50
10411;DHT22;5251;52.112;8.606;2022-07-29T14:53:43;29.00;52.40
10411;DHT22;5251;52.112;8.606;2022-07-29T14:56:09;29.00;52.70
10411;DHT22;5251;52.112;8.606;2022-07-29T14:58:35;29.00;52.70
10411;DHT22;5251;52.112;8.606;2022-07-29T15:01:00;28.90;52.30
10411;DHT22;5251;52.112;8.606;2022-07-29T15:03:26;28.90;52.40
10411;DHT22;5251;52.112;8.606;2022-07-29T15:05:53;28.80;52.50
10411;DHT22;5251;52.112;8.606;2022-07-29T15:08:19;28.70;52.70
10411;DHT22;5251;52.112;8.606;2022-07-29T15:10:45;28.60;53.00
10411;DHT22;5251;52.112;8.606;2022-07-29T15:13:10;28.60;53.20
10411;DHT22;5251;52.112;8.606;2022-07-29T15:15:36;28.50;53.30
10411;DHT22;5251;52.112;8.606;2022-07-29T15:18:02;28.40;53.60
10411;DHT22;5251;52.112;8.606;2022-07-29T15:20:27;28.40;53.40
10411;DHT22;5251;52.112;8.606;2022-07-29T15:22:54;28.30;53.10
10411;DHT22;5251;52.112;8.606;2022-07-29T15:25:24;28.30;53.80
10411;DHT22;5251;52.112;8.606;2022-07-29T15:27:50;28.20;54.00
10411;DHT22;5251;52.112;8.606;2022-07-29T15:30:16;28.20;54.00
10411;DHT22;5251;52.112;8.606;2022-07-29T15:32:43;28.10;54.60
10411;DHT22;5251;52.112;8.606;2022-07-29T15:35:09;28.00;54.50
10411;DHT22;5251;52.112;8.606;2022-07-29T15:37:38;27.90;54.50
10411;DHT22;5251;52.112;8.606;2022-07-29T15:40:05;27.90;56.20
10411;DHT22;5251;52.112;8.606;2022-07-29T15:42:31;27.80;57.40
10411;DHT22;5251;52.112;8.606;2022-07-29T15:44:56;27.60;56.10
10411;DHT22;5251;52.112;8.606;2022-07-29T15:47:22;27.50;57.50
10411;DHT22;5251;52.112;8.606;2022-07-29T15:49:48;27.30;57.20
10411;DHT22;5251;52.112;8.606;2022-07-29T15:52:16;27.10;56.50
10411;DHT22;5251;52.112;8.606;2022-07-29T15:54:42;27.00;56.80
10411;DHT22;5251;52.112;8.606;2022-07-29T15:57:07;26.80;56.50
10411;DHT22;5251;52.112;8.606;2022-07-29T15:59:33;26.70;56.50
10411;DHT22;5251;52.112;8.606;2022-07-29T16:01:59;26.60;56.70
10411;DHT22;5251;52.112;8.606;2022-07-29T16:04:25;26.50;56.80
10411;DHT22;5251;52.112;8.606;2022-07-29T16:06:51;26.50;57.00
10411;DHT22;5251;52.112;8.606;2022-07-29T16:09:17;26.40;57.10
10411;DHT22;5251;52.112;8.606;2022-07-29T16:11:43;26.30;57.40
10411;DHT22;5251;52.112;8.606;2022-07-29T16:14:11;26.30;57.50
10411;DHT22;5251;52.112;8.606;2022-07-29T16:16:37;26.30;57.70
10411;DHT22;5251;52.112;8.606;2022-07-29T16:19:04;26.20;57.80
10411;DHT22;5251;52.112;8.606;2022-07-29T16:21:29;26.30;57.90
10411;DHT22;5251;52.112;8.606;2022-07-29T16:23:56;26.20;58.30
10411;DHT22;5251;52.112;8.606;2022-07-29T16:26:22;26.20;57.90
10411;DHT22;5251;52.112;8.606;2022-07-29T16:28:48;26.30;58.20
10411;DHT22;5251;52.112;8.606;2022-07-29T16:31:13;26.20;58.30
10411;DHT22;5251;52.112;8.606;2022-07-29T16:33:39;26.20;58.30